createdAt,value
2023-05-17T00:02:06.481Z,0.60
2023-05-17T00:04:34.151Z,0.80
2023-05-17T00:07:00.993Z,1.10
2023-05-17T00:09:27.994Z,1.10
2023-05-17T00:11:54.709Z,0.70
2023-05-17T00:14:21.524Z,0.50
2023-05-17T00:16:48.178Z,0.60
2023-05-17T00:19:14.973Z,1.50
2023-05-17T00:21:42.040Z,0.70
2023-05-17T00:24:09.555Z,1.30
2023-05-17T00:26:36.978Z,0.70
2023-05-17T00:29:03.667Z,0.90
2023-05-17T00:31:30.511Z,1.00
2023-05-17T00:33:57.275Z,0.90
2023-05-17T00:36:23.945Z,1.40
2023-05-17T00:38:50.714Z,1.20
2023-05-17T00:41:18.444Z,1.60
2023-05-17T00:43:46.178Z,0.50
2023-05-17T00:46:16.314Z,1.20
2023-05-17T00:48:43.587Z,0.40
2023-05-17T00:51:11.820Z,0.40
2023-05-17T00:53:39.128Z,1.50
2023-05-17T00:56:06.672Z,0.50
2023-05-17T00:58:33.929Z,4.10
2023-05-17T01:01:03.897Z,0.60
2023-05-17T01:03:30.978Z,0.40
2023-05-17T01:05:57.929Z,0.60
2023-05-17T01:08:24.792Z,0.40
2023-05-17T01:11:01.910Z,0.30
2023-05-17T01:13:40.639Z,0.30
2023-05-17T01:16:21.703Z,0.30
2023-05-17T01:19:23.373Z,0.30
2023-05-17T01:22:20.743Z,1.30
2023-05-17T01:25:09.127Z,0.30
2023-05-17T01:27:38.009Z,0.30
2023-05-17T01:30:06.444Z,0.20
2023-05-17T01:32:33.906Z,3.00
2023-05-17T01:35:01.024Z,2.00
2023-05-17T01:37:27.717Z,0.80
2023-05-17T01:39:54.434Z,0.30
2023-05-17T01:42:31.379Z,0.90
2023-05-17T01:45:22.751Z,0.30
2023-05-17T01:48:10.017Z,0.30
2023-05-17T01:50:39.910Z,0.40
2023-05-17T01:53:11.059Z,0.20
2023-05-17T01:55:50.386Z,0.50
2023-05-17T01:58:21.795Z,0.70
2023-05-17T02:00:49.873Z,0.80
2023-05-17T02:03:20.832Z,2.70
2023-05-17T02:05:51.747Z,3.70
2023-05-17T02:08:18.572Z,2.40
2023-05-17T02:10:45.522Z,11.40
2023-05-17T02:13:13.137Z,3.10
2023-05-17T02:15:39.838Z,0.50
2023-05-17T02:18:06.893Z,0.30
2023-05-17T02:20:33.697Z,0.30
2023-05-17T02:23:00.570Z,0.30
2023-05-17T02:25:27.806Z,3.20
2023-05-17T02:27:54.985Z,1.40
2023-05-17T02:30:22.506Z,1.30
2023-05-17T02:32:49.472Z,2.70
2023-05-17T02:35:16.461Z,0.90
2023-05-17T02:37:43.581Z,0.90
2023-05-17T02:40:13.242Z,0.40
2023-05-17T02:42:39.996Z,0.90
2023-05-17T02:45:07.603Z,0.10
2023-05-17T02:47:34.360Z,0.20
2023-05-17T02:52:45.967Z,0.20
2023-05-17T02:55:12.902Z,0.20
2023-05-17T02:57:39.561Z,0.50
2023-05-17T03:00:07.422Z,0.20
2023-05-17T03:02:34.415Z,0.70
2023-05-17T03:05:01.650Z,0.10
2023-05-17T03:07:29.064Z,0.00
2023-05-17T03:09:55.981Z,0.90
2023-05-17T03:12:23.847Z,0.30
2023-05-17T03:14:50.912Z,0.30
2023-05-17T03:17:17.873Z,0.40
2023-05-17T03:19:45.192Z,0.10
2023-05-17T03:22:12.299Z,0.90
2023-05-17T03:24:41.872Z,1.30
2023-05-17T03:27:08.543Z,0.20
2023-05-17T03:29:36.318Z,0.70
2023-05-17T03:32:03.264Z,0.30
2023-05-17T03:34:30.475Z,0.30
2023-05-17T03:36:57.239Z,2.50
2023-05-17T03:39:24.018Z,1.00
2023-05-17T03:41:51.031Z,0.50
2023-05-17T03:44:18.149Z,1.20
2023-05-17T03:46:44.855Z,0.60
2023-05-17T03:49:11.795Z,0.80
2023-05-17T03:51:39.311Z,0.70
2023-05-17T03:54:06.266Z,0.30
2023-05-17T03:56:33.150Z,2.80
2023-05-17T03:59:00.779Z,0.90
2023-05-17T04:01:27.473Z,0.70
2023-05-17T04:03:54.401Z,0.90
2023-05-17T04:06:21.589Z,0.50
2023-05-17T04:08:48.310Z,0.90
2023-05-17T04:11:14.979Z,0.50
2023-05-17T04:13:42.463Z,2.30
2023-05-17T04:16:10.533Z,1.00
2023-05-17T04:18:39.143Z,0.90
2023-05-17T04:21:07.001Z,0.70
2023-05-17T04:23:35.114Z,2.60
2023-05-17T04:26:03.508Z,0.80
2023-05-17T04:28:35.171Z,1.30
2023-05-17T04:31:02.365Z,1.20
2023-05-17T04:33:29.566Z,1.20
2023-05-17T04:35:57.490Z,0.80
2023-05-17T04:38:25.153Z,1.00
2023-05-17T04:40:52.069Z,1.20
2023-05-17T04:43:19.218Z,0.80
2023-05-17T04:45:46.837Z,0.70
2023-05-17T04:48:15.784Z,1.40
2023-05-17T04:50:47.274Z,0.60
2023-05-17T04:53:15.868Z,0.70
2023-05-17T04:55:43.331Z,1.10
2023-05-17T04:58:10.519Z,0.50
2023-05-17T05:00:38.045Z,1.10
2023-05-17T05:03:05.152Z,0.60
2023-05-17T05:05:33.244Z,0.60
2023-05-17T05:08:00.226Z,0.50
2023-05-17T05:10:28.834Z,0.80
2023-05-17T05:12:56.267Z,1.20
2023-05-17T05:15:23.387Z,0.60
2023-05-17T05:17:54.742Z,0.80
2023-05-17T05:20:22.485Z,0.60
2023-05-17T05:22:49.290Z,0.80
2023-05-17T05:25:17.214Z,0.50
2023-05-17T05:27:44.769Z,1.10
2023-05-17T05:30:12.716Z,0.80
2023-05-17T05:32:39.653Z,0.50
2023-05-17T05:35:06.857Z,0.60
2023-05-17T05:37:34.073Z,1.00
2023-05-17T05:40:00.898Z,1.70
2023-05-17T05:42:27.801Z,1.70
2023-05-17T05:44:55.501Z,1.20
2023-05-17T05:47:22.862Z,1.90
2023-05-17T05:49:50.803Z,0.90
2023-05-17T05:52:17.854Z,1.90
2023-05-17T05:54:46.041Z,4.60
2023-05-17T05:57:12.734Z,1.10
2023-05-17T05:59:40.835Z,1.30
2023-05-17T06:02:08.694Z,3.50
2023-05-17T06:04:45.362Z,1.20
2023-05-17T06:07:13.795Z,1.90
2023-05-17T06:09:41.268Z,0.80
2023-05-17T06:12:08.166Z,0.80
2023-05-17T06:14:34.881Z,1.50
2023-05-17T06:17:01.850Z,1.80
2023-05-17T06:19:28.849Z,2.40
2023-05-17T06:21:55.807Z,3.40
2023-05-17T06:24:23.209Z,12.50
2023-05-17T06:26:49.876Z,50.50
2023-05-17T06:29:16.639Z,21.30
2023-05-17T06:31:43.348Z,12.80
2023-05-17T06:34:10.045Z,18.90
2023-05-17T06:36:38.476Z,14.20
2023-05-17T06:39:05.732Z,5.40
2023-05-17T06:41:32.752Z,5.30
2023-05-17T06:43:59.432Z,2.90
2023-05-17T06:46:26.451Z,3.60
2023-05-17T06:48:53.254Z,2.30
2023-05-17T06:51:20.240Z,2.20
2023-05-17T06:53:46.871Z,1.40
2023-05-17T06:56:14.655Z,1.10
2023-05-17T06:58:41.819Z,1.80
2023-05-17T07:01:11.320Z,0.90
2023-05-17T07:03:38.249Z,2.50
2023-05-17T07:06:05.701Z,0.70
2023-05-17T07:08:32.508Z,1.40
2023-05-17T07:10:59.275Z,0.60
2023-05-17T07:13:26.236Z,0.60
2023-05-17T07:15:53.316Z,0.70
2023-05-17T07:18:21.259Z,0.30
2023-05-17T07:20:48.029Z,1.90
2023-05-17T07:23:14.849Z,0.90
2023-05-17T07:25:43.367Z,1.00
2023-05-17T07:28:10.081Z,2.00
2023-05-17T07:30:36.715Z,1.00
2023-05-17T07:33:03.724Z,3.10
2023-05-17T07:35:30.872Z,0.70
2023-05-17T07:37:58.183Z,2.50
2023-05-17T07:40:25.075Z,0.40
2023-05-17T07:42:52.101Z,0.50
2023-05-17T07:45:20.145Z,0.40
2023-05-17T07:47:46.958Z,0.40
2023-05-17T07:50:16.303Z,0.70
2023-05-17T07:52:42.992Z,1.30
2023-05-17T07:55:13.757Z,0.60
2023-05-17T07:57:41.729Z,0.70
2023-05-17T08:00:12.677Z,1.00
2023-05-17T08:02:41.274Z,1.20
2023-05-17T08:05:08.865Z,1.60
2023-05-17T08:07:36.156Z,0.60
2023-05-17T08:10:03.652Z,0.90
2023-05-17T08:12:30.301Z,0.80
2023-05-17T08:14:56.948Z,1.00
2023-05-17T08:17:23.602Z,2.20
2023-05-17T08:19:53.692Z,1.50
2023-05-17T08:22:20.451Z,0.90
2023-05-17T08:24:47.314Z,1.50
2023-05-17T08:27:14.136Z,1.10
2023-05-17T08:29:40.792Z,4.80
2023-05-17T08:32:07.845Z,4.80
2023-05-17T08:34:34.657Z,6.10
2023-05-17T08:37:01.577Z,7.10
2023-05-17T08:39:28.541Z,5.10
2023-05-17T08:41:59.560Z,5.20
2023-05-17T08:44:28.574Z,5.10
2023-05-17T08:46:56.778Z,4.80
2023-05-17T08:49:26.154Z,6.20
2023-05-17T08:51:54.739Z,5.30
2023-05-17T08:54:22.614Z,5.80
2023-05-17T08:56:52.630Z,6.40
2023-05-17T08:59:20.125Z,6.30
2023-05-17T09:01:49.808Z,5.60
2023-05-17T09:04:17.484Z,6.40
2023-05-17T09:06:44.935Z,4.50
2023-05-17T09:09:11.791Z,5.40
2023-05-17T09:11:39.363Z,7.90
2023-05-17T09:14:09.478Z,3.70
2023-05-17T09:16:38.262Z,4.50
2023-05-17T09:19:07.477Z,2.90
2023-05-17T09:21:38.048Z,3.10
2023-05-17T09:24:08.408Z,3.30
2023-05-17T09:26:44.683Z,4.20
2023-05-17T09:29:13.791Z,4.10
2023-05-17T09:31:41.836Z,4.50
2023-05-17T09:34:09.621Z,4.50
2023-05-17T09:36:38.554Z,4.60
2023-05-17T09:39:10.752Z,5.00
2023-05-17T09:41:47.377Z,4.90
2023-05-17T09:44:15.344Z,5.20
2023-05-17T09:46:45.784Z,5.60
2023-05-17T09:49:13.253Z,5.00
2023-05-17T09:51:42.472Z,5.80
2023-05-17T09:54:13.425Z,4.50
2023-05-17T09:56:42.266Z,4.80
2023-05-17T09:59:16.701Z,7.80
2023-05-17T10:01:45.777Z,3.70
2023-05-17T10:04:13.868Z,4.60
2023-05-17T10:06:49.910Z,4.30
2023-05-17T10:09:21.910Z,3.90
2023-05-17T10:11:52.576Z,3.40
2023-05-17T10:14:27.703Z,4.20
2023-05-17T10:16:55.158Z,3.40
2023-05-17T10:19:23.371Z,3.90
2023-05-17T10:21:51.730Z,3.30
2023-05-17T10:24:21.042Z,6.40
2023-05-17T10:26:50.587Z,3.10
2023-05-17T10:29:21.033Z,3.40
2023-05-17T10:31:51.470Z,4.60
2023-05-17T10:34:19.939Z,3.00
2023-05-17T10:36:49.548Z,2.60
2023-05-17T10:39:16.886Z,2.80
2023-05-17T10:41:46.589Z,3.70
2023-05-17T10:44:16.370Z,2.90
2023-05-17T10:46:57.460Z,2.80
2023-05-17T10:49:34.731Z,2.70
2023-05-17T10:52:19.261Z,3.50
2023-05-17T10:54:49.566Z,3.50
2023-05-17T10:57:21.708Z,2.00
2023-05-17T10:59:59.636Z,2.40
2023-05-17T11:02:28.397Z,2.50
2023-05-17T11:05:00.572Z,1.60
2023-05-17T11:07:32.298Z,2.30
2023-05-17T11:10:08.802Z,1.50
2023-05-17T11:12:48.151Z,1.00
2023-05-17T11:15:16.874Z,1.00
2023-05-17T11:17:43.731Z,0.80
2023-05-17T11:20:31.470Z,2.20
2023-05-17T11:23:00.898Z,0.40
2023-05-17T11:25:36.264Z,0.20
2023-05-17T11:28:22.789Z,1.30
2023-05-17T11:30:54.045Z,0.40
2023-05-17T11:33:46.576Z,1.30
2023-05-17T11:36:20.665Z,0.20
2023-05-17T11:39:09.797Z,0.10
2023-05-17T11:41:48.096Z,0.00
2023-05-17T11:44:17.066Z,0.90
2023-05-17T11:46:45.082Z,1.00
2023-05-17T11:49:17.745Z,1.60
2023-05-17T11:51:50.299Z,0.20
2023-05-17T11:54:17.117Z,0.20
2023-05-17T11:56:44.900Z,0.00
2023-05-17T11:59:11.690Z,0.20
2023-05-17T12:01:46.344Z,0.60
2023-05-17T12:04:13.493Z,0.30
2023-05-17T12:06:40.912Z,0.70
2023-05-17T12:09:11.005Z,0.30
2023-05-17T12:11:41.690Z,1.80
2023-05-17T12:14:08.611Z,0.00
2023-05-17T12:16:39.555Z,0.40
2023-05-17T12:19:17.547Z,0.20
2023-05-17T12:21:44.553Z,0.20
2023-05-17T12:24:11.277Z,0.20
2023-05-17T12:26:46.523Z,0.20
2023-05-17T12:29:16.076Z,0.80
2023-05-17T12:31:51.535Z,1.40
2023-05-17T12:34:21.631Z,0.10
2023-05-17T12:36:49.394Z,0.30
2023-05-17T12:39:18.286Z,0.20
2023-05-17T12:41:45.294Z,0.10
2023-05-17T12:44:16.447Z,0.00
2023-05-17T12:46:44.918Z,0.40
2023-05-17T12:49:14.890Z,0.10
2023-05-17T12:51:46.644Z,0.30
2023-05-17T12:56:57.090Z,0.10
2023-05-17T12:59:29.200Z,0.10
2023-05-17T13:01:58.252Z,0.10
2023-05-17T13:04:36.915Z,0.20
2023-05-17T13:07:05.389Z,0.10
2023-05-17T13:09:33.434Z,0.30
2023-05-17T13:12:03.201Z,0.20
2023-05-17T13:14:46.106Z,0.40
2023-05-17T13:17:25.479Z,0.90
2023-05-17T13:19:52.966Z,0.50
2023-05-17T13:22:19.726Z,0.40
2023-05-17T13:24:46.528Z,0.20
2023-05-17T13:27:13.380Z,0.30
2023-05-17T13:29:42.398Z,0.30
2023-05-17T13:32:13.895Z,0.30
2023-05-17T13:34:41.325Z,0.70
2023-05-17T13:37:11.465Z,0.10
2023-05-17T13:39:39.480Z,0.20
2023-05-17T13:42:06.538Z,0.20
2023-05-17T13:44:33.455Z,0.10
2023-05-17T13:47:00.505Z,0.80
2023-05-17T13:49:28.598Z,0.20
2023-05-17T13:51:56.614Z,0.20
2023-05-17T13:54:23.330Z,1.40
2023-05-17T13:56:50.032Z,0.50
2023-05-17T13:59:16.684Z,0.10
2023-05-17T14:01:43.927Z,1.50
2023-05-17T14:04:10.889Z,0.20
2023-05-17T14:06:39.867Z,2.20
2023-05-17T14:09:06.983Z,1.40
2023-05-17T14:11:34.442Z,1.10
2023-05-17T14:14:02.267Z,0.40
2023-05-17T14:16:28.980Z,0.70
2023-05-17T14:18:56.035Z,2.00
2023-05-17T14:21:22.942Z,0.40
2023-05-17T14:23:49.810Z,0.30
2023-05-17T14:26:16.719Z,0.40
2023-05-17T14:28:43.607Z,0.50
2023-05-17T14:31:10.876Z,0.20
2023-05-17T14:33:37.737Z,0.30
2023-05-17T14:36:04.893Z,0.10
2023-05-17T14:38:31.646Z,0.90
2023-05-17T14:41:00.629Z,0.30
2023-05-17T14:43:28.855Z,0.60
2023-05-17T14:45:55.932Z,0.20
2023-05-17T14:48:25.456Z,1.30
2023-05-17T14:50:53.487Z,0.10
2023-05-17T14:53:20.241Z,0.90
2023-05-17T14:55:47.695Z,0.20
2023-05-17T14:58:15.850Z,0.50
2023-05-17T15:00:48.561Z,0.60
2023-05-17T15:03:21.734Z,1.20
2023-05-17T15:05:58.587Z,0.40
2023-05-17T15:08:27.631Z,0.60
2023-05-17T15:10:54.682Z,0.30
2023-05-17T15:13:21.664Z,0.40
2023-05-17T15:15:48.798Z,0.20
2023-05-17T15:18:15.478Z,1.00
2023-05-17T15:20:44.271Z,0.30
2023-05-17T15:23:13.916Z,1.60
2023-05-17T15:25:41.791Z,0.70
2023-05-17T15:28:08.642Z,0.70
2023-05-17T15:30:35.485Z,1.90
2023-05-17T15:33:02.785Z,1.80
2023-05-17T15:35:29.798Z,1.40
2023-05-17T15:37:59.419Z,1.70
2023-05-17T15:40:26.120Z,0.90
2023-05-17T15:42:53.038Z,0.40
2023-05-17T15:45:21.680Z,0.30
2023-05-17T15:47:49.616Z,0.70
2023-05-17T15:50:16.790Z,0.10
2023-05-17T15:52:43.679Z,0.80
2023-05-17T15:55:11.067Z,0.30
2023-05-17T15:57:37.844Z,0.10
2023-05-17T16:00:05.371Z,0.40
2023-05-17T16:02:32.111Z,0.10
2023-05-17T16:05:01.187Z,0.20
2023-05-17T16:07:29.385Z,0.50
2023-05-17T16:09:56.025Z,0.50
2023-05-17T16:12:22.690Z,0.40
2023-05-17T16:14:49.392Z,1.00
2023-05-17T16:17:16.170Z,0.30
2023-05-17T16:19:42.967Z,0.20
2023-05-17T16:22:09.851Z,0.10
2023-05-17T16:24:36.809Z,0.30
2023-05-17T16:27:06.409Z,0.20
2023-05-17T16:29:39.797Z,0.20
2023-05-17T16:32:08.221Z,1.40
2023-05-17T16:34:35.293Z,0.30
2023-05-17T16:37:04.180Z,0.40
2023-05-17T16:39:30.907Z,0.30
2023-05-17T16:41:57.568Z,0.30
2023-05-17T16:44:24.324Z,0.40
2023-05-17T16:46:51.889Z,0.80
2023-05-17T16:49:18.886Z,0.40
2023-05-17T16:51:45.550Z,0.40
2023-05-17T16:54:13.079Z,1.00
2023-05-17T16:56:39.693Z,0.30
2023-05-17T16:59:06.346Z,0.20
2023-05-17T17:01:33.339Z,1.30
2023-05-17T17:04:00.879Z,0.50
2023-05-17T17:06:27.651Z,0.40
2023-05-17T17:08:54.662Z,0.40
2023-05-17T17:11:24.325Z,1.10
2023-05-17T17:13:53.636Z,0.30
2023-05-17T17:16:21.213Z,0.30
2023-05-17T17:18:49.639Z,0.30
2023-05-17T17:21:16.862Z,0.30
2023-05-17T17:23:44.539Z,0.40
2023-05-17T17:26:12.776Z,2.10
2023-05-17T17:28:39.655Z,1.00
2023-05-17T17:31:06.825Z,1.30
2023-05-17T17:33:34.257Z,0.60
2023-05-17T17:36:02.935Z,0.90
2023-05-17T17:38:29.587Z,1.00
2023-05-17T17:40:56.474Z,1.10
2023-05-17T17:43:23.192Z,6.60
2023-05-17T17:45:49.849Z,1.20
2023-05-17T17:48:16.551Z,1.70
2023-05-17T17:50:43.528Z,1.70
2023-05-17T17:53:10.697Z,1.30
2023-05-17T17:55:37.334Z,2.00
2023-05-17T17:58:04.024Z,2.00
2023-05-17T18:00:31.084Z,2.70
2023-05-17T18:02:58.209Z,2.50
2023-05-17T18:05:26.198Z,1.60
2023-05-17T18:07:53.102Z,3.60
2023-05-17T18:10:19.834Z,3.70
2023-05-17T18:12:46.759Z,2.60
2023-05-17T18:15:13.409Z,1.50
2023-05-17T18:17:40.213Z,2.20
2023-05-17T18:20:08.453Z,1.50
2023-05-17T18:22:35.461Z,1.90
2023-05-17T18:25:02.339Z,2.70
2023-05-17T18:27:29.016Z,1.10
2023-05-17T18:29:55.821Z,1.20
2023-05-17T18:32:22.564Z,0.90
2023-05-17T18:34:49.304Z,1.70
2023-05-17T18:37:16.228Z,1.00
2023-05-17T18:39:43.096Z,1.00
2023-05-17T18:42:09.747Z,0.60
2023-05-17T18:44:37.078Z,1.20
2023-05-17T18:47:04.281Z,1.60
2023-05-17T18:49:31.557Z,1.70
2023-05-17T18:51:58.354Z,0.80
2023-05-17T18:54:25.489Z,0.70
2023-05-17T18:56:52.422Z,0.80
2023-05-17T18:59:19.142Z,1.80
2023-05-17T19:01:46.314Z,4.00
2023-05-17T19:04:14.158Z,0.80
2023-05-17T19:06:42.300Z,0.70
2023-05-17T19:09:09.110Z,0.70
2023-05-17T19:11:36.947Z,0.90
2023-05-17T19:14:04.395Z,0.90
2023-05-17T19:16:32.086Z,0.50
2023-05-17T19:18:59.902Z,1.20
2023-05-17T19:21:26.937Z,0.60
2023-05-17T19:23:53.855Z,0.80
2023-05-17T19:26:22.541Z,0.70
2023-05-17T19:28:49.420Z,1.30
2023-05-17T19:31:20.332Z,2.60
2023-05-17T19:33:47.493Z,2.20
2023-05-17T19:36:19.746Z,1.70
2023-05-17T19:38:47.008Z,2.70
2023-05-17T19:41:17.329Z,2.50
2023-05-17T19:43:45.317Z,2.70
2023-05-17T19:46:13.182Z,3.50
2023-05-17T19:48:40.633Z,2.30
2023-05-17T19:51:08.441Z,2.10
2023-05-17T19:53:50.850Z,3.60
2023-05-17T19:56:23.179Z,1.80
2023-05-17T19:58:57.186Z,1.20
2023-05-17T20:01:24.355Z,4.90
2023-05-17T20:03:51.404Z,1.10
2023-05-17T20:06:18.458Z,1.10
2023-05-17T20:08:45.794Z,1.20
2023-05-17T20:11:13.282Z,2.80
2023-05-17T20:13:41.275Z,2.00
2023-05-17T20:16:13.556Z,1.60
2023-05-17T20:18:43.303Z,1.30
2023-05-17T20:21:12.753Z,0.80
2023-05-17T20:23:39.724Z,1.40
2023-05-17T20:26:06.602Z,1.20
2023-05-17T20:28:33.240Z,1.00
2023-05-17T20:31:01.321Z,1.40
2023-05-17T20:33:28.241Z,1.50
2023-05-17T20:35:56.511Z,1.40
2023-05-17T20:38:23.691Z,1.10
2023-05-17T20:40:52.101Z,0.90
2023-05-17T20:43:19.969Z,3.00
2023-05-17T20:45:46.868Z,1.30
2023-05-17T20:48:13.603Z,1.00
2023-05-17T20:50:40.615Z,0.90
2023-05-17T20:53:07.359Z,1.10
2023-05-17T20:55:34.076Z,1.80
2023-05-17T20:58:00.829Z,1.00
2023-05-17T21:00:27.852Z,1.90
2023-05-17T21:02:54.863Z,1.80
2023-05-17T21:05:22.099Z,0.90
2023-05-17T21:07:50.654Z,3.30
2023-05-17T21:10:18.070Z,1.00
2023-05-17T21:12:44.905Z,1.10
2023-05-17T21:17:41.477Z,0.90
2023-05-17T21:20:08.840Z,0.80
2023-05-17T21:22:35.680Z,0.90
2023-05-17T21:25:02.716Z,1.10
2023-05-17T21:27:29.443Z,1.30
2023-05-17T21:29:56.122Z,1.10
2023-05-17T21:32:23.168Z,1.60
2023-05-17T21:34:51.009Z,1.30
2023-05-17T21:37:18.937Z,1.30
2023-05-17T21:39:45.882Z,2.60
2023-05-17T21:42:12.575Z,1.10
2023-05-17T21:44:39.369Z,1.10
2023-05-17T21:47:06.227Z,0.90
2023-05-17T21:49:32.917Z,1.20
2023-05-17T21:51:59.804Z,1.10
2023-05-17T21:54:26.495Z,1.50
2023-05-17T21:56:53.163Z,3.50
2023-05-17T21:59:19.929Z,2.60
2023-05-17T22:01:46.986Z,2.10
2023-05-17T22:04:13.725Z,1.20
2023-05-17T22:06:40.484Z,1.80
2023-05-17T22:09:07.341Z,3.00
2023-05-17T22:11:38.323Z,1.60
2023-05-17T22:14:08.082Z,2.30
2023-05-17T22:16:37.714Z,1.30
2023-05-17T22:19:05.886Z,1.30
2023-05-17T22:21:33.295Z,1.40
2023-05-17T22:24:00.189Z,2.20
2023-05-17T22:26:27.876Z,1.80
2023-05-17T22:28:55.879Z,1.30
2023-05-17T22:31:23.003Z,3.40
2023-05-17T22:33:50.510Z,1.60
2023-05-17T22:36:17.982Z,1.20
2023-05-17T22:38:44.630Z,1.90
2023-05-17T22:41:11.878Z,1.20
2023-05-17T22:43:39.389Z,2.10
2023-05-17T22:46:06.572Z,1.20
2023-05-17T22:48:33.235Z,3.30
2023-05-17T22:51:01.281Z,1.80
2023-05-17T22:53:28.940Z,1.10
2023-05-17T22:55:56.909Z,2.20
2023-05-17T22:58:24.038Z,2.10
2023-05-17T23:00:51.385Z,2.50
2023-05-17T23:03:19.840Z,1.20
2023-05-17T23:05:46.666Z,1.40
2023-05-17T23:08:15.669Z,1.70
2023-05-17T23:10:46.167Z,1.20
2023-05-17T23:13:13.061Z,1.00
2023-05-17T23:15:40.797Z,1.10
2023-05-17T23:18:07.761Z,1.50
2023-05-17T23:20:35.077Z,1.30
2023-05-17T23:23:02.156Z,1.00
2023-05-17T23:25:29.401Z,1.10
2023-05-17T23:27:58.326Z,1.90
2023-05-17T23:30:26.458Z,6.70
2023-05-17T23:32:55.319Z,0.30
2023-05-17T23:35:23.648Z,1.50
2023-05-17T23:37:50.302Z,2.00
2023-05-17T23:40:17.119Z,0.10
2023-05-17T23:42:43.780Z,0.20
2023-05-17T23:45:10.518Z,0.70
2023-05-17T23:47:40.799Z,0.30
2023-05-17T23:50:12.399Z,1.70
2023-05-17T23:52:39.582Z,0.10
2023-05-17T23:55:07.754Z,0.70
2023-05-17T23:57:35.425Z,0.70
